createdAt,value
2022-08-11T00:01:29.162Z,19.70
2022-08-11T00:04:20.963Z,19.60
2022-08-11T00:07:10.609Z,19.60
2022-08-11T00:10:00.408Z,19.60
2022-08-11T00:13:01.790Z,19.50
2022-08-11T00:15:50.811Z,19.70
2022-08-11T00:18:46.525Z,19.60
2022-08-11T00:22:04.375Z,19.50
2022-08-11T00:24:53.973Z,19.70
2022-08-11T00:27:44.183Z,19.50
2022-08-11T00:30:40.142Z,19.40
2022-08-11T00:33:41.179Z,19.60
2022-08-11T00:37:01.314Z,19.30
2022-08-11T00:39:53.789Z,19.40
2022-08-11T00:43:23.963Z,19.40
2022-08-11T00:46:39.041Z,19.40
2022-08-11T00:49:48.303Z,19.30
2022-08-11T00:53:17.442Z,19.40
2022-08-11T00:56:25.713Z,19.30
2022-08-11T01:00:06.292Z,19.20
2022-08-11T01:03:17.959Z,19.20
2022-08-11T01:06:27.596Z,19.40
2022-08-11T01:09:52.864Z,19.30
2022-08-11T01:12:56.929Z,19.20
2022-08-11T01:16:28.181Z,19.20
2022-08-11T01:20:45.868Z,19.20
2022-08-11T01:23:29.745Z,19.20
2022-08-11T01:26:29.687Z,18.90
2022-08-11T01:30:00.297Z,19.20
2022-08-11T01:33:34.213Z,19.20
2022-08-11T01:37:00.524Z,19.30
2022-08-11T01:39:57.451Z,19.10
2022-08-11T01:43:28.207Z,19.10
2022-08-11T01:46:35.598Z,19.10
2022-08-11T01:50:09.427Z,19.10
2022-08-11T01:53:18.543Z,19.10
2022-08-11T01:56:28.251Z,19.10
2022-08-11T01:59:28.475Z,19.00
2022-08-11T02:02:47.861Z,18.90
2022-08-11T02:06:01.364Z,18.90
2022-08-11T02:09:13.882Z,18.90
2022-08-11T02:12:43.823Z,19.00
2022-08-11T02:15:51.541Z,18.90
2022-08-11T02:19:00.757Z,18.90
2022-08-11T02:22:25.837Z,18.10
2022-08-11T02:25:54.184Z,14.70
2022-08-11T02:29:01.516Z,18.50
2022-08-11T02:32:32.425Z,18.50
2022-08-11T02:35:44.018Z,18.50
2022-08-11T02:38:54.238Z,18.60
2022-08-11T02:42:08.200Z,18.60
2022-08-11T02:45:34.303Z,18.70
2022-08-11T02:49:17.603Z,18.60
2022-08-11T02:52:09.890Z,18.60
2022-08-11T02:55:56.425Z,18.50
2022-08-11T02:59:07.174Z,18.50
2022-08-11T03:02:27.920Z,18.50
2022-08-11T03:05:38.030Z,18.50
2022-08-11T03:08:52.579Z,18.50
2022-08-11T03:12:25.829Z,18.40
2022-08-11T03:15:48.383Z,18.40
2022-08-11T03:19:02.081Z,18.40
2022-08-11T03:22:19.802Z,18.30
2022-08-11T03:25:31.752Z,18.30
2022-08-11T03:29:07.022Z,18.20
2022-08-11T03:32:27.350Z,18.30
2022-08-11T03:35:21.440Z,18.30
2022-08-11T03:38:16.098Z,18.30
2022-08-11T03:42:01.312Z,18.40
2022-08-11T03:45:26.666Z,18.30
2022-08-11T03:48:29.927Z,18.30
2022-08-11T03:51:26.770Z,18.30
2022-08-11T03:55:02.994Z,18.30
2022-08-11T03:58:18.914Z,18.50
2022-08-11T04:01:29.694Z,18.30
2022-08-11T04:05:14.021Z,18.30
2022-08-11T04:08:34.236Z,18.30
2022-08-11T04:11:59.715Z,18.10
2022-08-11T04:15:43.517Z,18.10
2022-08-11T04:19:11.301Z,18.10
2022-08-11T04:23:07.841Z,18.10
2022-08-11T04:26:34.384Z,18.00
2022-08-11T04:30:03.202Z,18.10
2022-08-11T04:33:36.546Z,18.10
2022-08-11T04:36:50.328Z,18.10
2022-08-11T04:40:12.632Z,18.10
2022-08-11T04:44:02.056Z,18.00
2022-08-11T04:48:03.947Z,17.90
2022-08-11T04:51:27.183Z,18.00
2022-08-11T04:55:27.566Z,18.00
2022-08-11T04:59:14.259Z,18.00
2022-08-11T05:02:23.386Z,18.10
2022-08-11T05:05:35.548Z,18.10
2022-08-11T05:09:21.263Z,18.20
2022-08-11T05:12:53.762Z,18.20
2022-08-11T05:16:12.937Z,18.20
2022-08-11T05:19:21.373Z,18.40
2022-08-11T05:22:32.068Z,18.30
2022-08-11T05:26:44.140Z,18.30
2022-08-11T05:30:02.261Z,18.30
2022-08-11T05:33:31.128Z,18.40
2022-08-11T05:36:46.280Z,18.40
2022-08-11T05:40:05.972Z,18.60
2022-08-11T05:43:32.705Z,18.60
2022-08-11T05:46:40.773Z,18.70
2022-08-11T05:49:53.445Z,18.70
2022-08-11T05:53:05.185Z,18.80
2022-08-11T05:56:18.531Z,18.90
2022-08-11T05:59:15.859Z,19.00
2022-08-11T06:02:07.081Z,19.10
2022-08-11T06:05:00.489Z,19.30
2022-08-11T06:07:57.057Z,19.40
2022-08-11T06:10:46.768Z,19.50
2022-08-11T06:13:35.824Z,19.60
2022-08-11T06:16:28.241Z,19.70
2022-08-11T06:19:18.552Z,19.90
2022-08-11T06:22:12.148Z,20.00
2022-08-11T06:25:06.118Z,20.00
2022-08-11T06:27:58.814Z,20.20
2022-08-11T06:30:49.001Z,20.30
2022-08-11T06:34:27.213Z,20.40
2022-08-11T06:38:03.773Z,20.50
2022-08-11T06:41:29.030Z,20.60
2022-08-11T06:44:30.008Z,20.80
2022-08-11T06:47:20.653Z,20.90
2022-08-11T06:50:27.693Z,21.10
2022-08-11T06:53:19.622Z,21.10
2022-08-11T06:56:30.252Z,21.30
2022-08-11T06:59:38.013Z,21.30
2022-08-11T07:03:08.776Z,21.40
2022-08-11T07:06:18.947Z,21.60
2022-08-11T07:10:08.785Z,21.80
2022-08-11T07:13:44.679Z,21.80
2022-08-11T07:16:36.003Z,22.00
2022-08-11T07:19:49.546Z,22.10
2022-08-11T07:22:57.417Z,22.20
2022-08-11T07:26:11.040Z,22.40
2022-08-11T07:29:00.480Z,22.40
2022-08-11T07:31:54.133Z,22.70
2022-08-11T07:34:49.348Z,22.80
2022-08-11T07:37:41.800Z,22.90
2022-08-11T07:40:31.068Z,23.30
2022-08-11T07:46:27.597Z,23.60
2022-08-11T07:49:34.595Z,23.60
2022-08-11T07:55:50.145Z,23.70
2022-08-11T07:59:01.050Z,23.90
2022-08-11T08:08:28.147Z,24.60
2022-08-11T08:11:35.648Z,24.80
2022-08-11T08:14:43.644Z,25.10
2022-08-11T08:18:09.093Z,25.50
2022-08-11T08:21:12.220Z,25.80
2022-08-11T08:24:01.257Z,26.20
2022-08-11T08:26:59.937Z,26.40
2022-08-11T08:30:07.746Z,26.50
2022-08-11T08:32:57.872Z,26.80
2022-08-11T08:35:55.870Z,26.80
2022-08-11T08:38:54.891Z,27.00
2022-08-11T08:41:45.403Z,26.80
2022-08-11T08:44:40.954Z,26.40
2022-08-11T08:47:42.470Z,26.70
2022-08-11T08:50:56.989Z,27.00
2022-08-11T08:53:53.935Z,27.10
2022-08-11T08:56:47.176Z,27.10
2022-08-11T08:59:49.105Z,27.10
2022-08-11T09:02:40.004Z,27.00
2022-08-11T09:05:28.570Z,27.10
2022-08-11T09:08:21.962Z,27.60
2022-08-11T09:11:30.705Z,28.30
2022-08-11T09:14:21.754Z,29.00
2022-08-11T09:17:10.041Z,29.10
2022-08-11T09:20:15.478Z,28.50
2022-08-11T09:26:56.378Z,28.80
2022-08-11T09:29:45.745Z,28.70
2022-08-11T09:32:35.370Z,28.60
2022-08-11T09:35:32.370Z,28.20
2022-08-11T09:38:49.442Z,28.00
2022-08-11T09:42:01.460Z,28.20
2022-08-11T09:44:49.812Z,28.60
2022-08-11T09:47:40.685Z,29.80
2022-08-11T09:53:36.306Z,29.20
2022-08-11T09:56:45.267Z,28.60
2022-08-11T10:02:28.492Z,28.40
2022-08-11T10:05:38.921Z,28.80
2022-08-11T10:08:29.554Z,28.90
2022-08-11T10:11:22.069Z,28.80
2022-08-11T10:14:34.041Z,28.60
2022-08-11T10:17:24.742Z,28.30
2022-08-11T10:20:13.353Z,29.10
2022-08-11T10:23:22.291Z,29.10
2022-08-11T10:26:32.135Z,29.40
2022-08-11T10:29:52.329Z,30.40
2022-08-11T10:33:04.129Z,29.90
2022-08-11T10:35:58.219Z,29.70
2022-08-11T10:38:52.326Z,29.60
2022-08-11T10:42:06.536Z,29.50
2022-08-11T10:45:01.680Z,29.50
2022-08-11T10:47:50.036Z,29.80
2022-08-11T10:50:57.173Z,30.20
2022-08-11T10:54:07.107Z,29.90
2022-08-11T10:57:20.035Z,30.10
2022-08-11T11:00:15.127Z,30.00
2022-08-11T11:03:23.695Z,30.10
2022-08-11T11:06:33.291Z,29.80
2022-08-11T11:09:34.210Z,30.10
2022-08-11T11:13:09.381Z,30.40
2022-08-11T11:16:16.509Z,30.90
2022-08-11T11:19:08.824Z,31.30
2022-08-11T11:22:19.006Z,31.50
2022-08-11T11:26:14.690Z,30.70
2022-08-11T11:29:41.802Z,30.90
2022-08-11T11:32:35.695Z,31.40
2022-08-11T11:36:26.700Z,31.30
2022-08-11T11:39:31.731Z,31.70
2022-08-11T11:42:21.666Z,31.90
2022-08-11T11:45:22.701Z,31.70
2022-08-11T11:48:12.700Z,31.60
2022-08-11T11:51:01.276Z,31.80
2022-08-11T11:53:50.394Z,31.60
2022-08-11T11:56:39.005Z,31.80
2022-08-11T11:59:46.922Z,32.50
2022-08-11T12:02:36.733Z,32.30
2022-08-11T12:05:26.852Z,31.90
2022-08-11T12:08:16.471Z,32.00
2022-08-11T12:11:28.501Z,32.20
2022-08-11T12:14:19.881Z,32.30
2022-08-11T12:17:08.229Z,32.40
2022-08-11T12:19:57.334Z,32.50
2022-08-11T12:23:04.284Z,32.80
2022-08-11T12:26:26.776Z,32.00
2022-08-11T12:29:20.504Z,32.60
2022-08-11T12:32:09.641Z,32.80
2022-08-11T12:34:58.503Z,32.80
2022-08-11T12:38:00.462Z,32.20
2022-08-11T12:41:14.976Z,32.20
2022-08-11T12:44:25.221Z,32.70
2022-08-11T12:47:21.015Z,32.50
2022-08-11T12:53:16.693Z,32.60
2022-08-11T12:56:26.286Z,33.00
2022-08-11T13:02:44.596Z,34.00
2022-08-11T13:05:34.715Z,34.50
2022-08-11T13:08:45.551Z,33.60
2022-08-11T13:11:55.839Z,34.00
2022-08-11T13:14:45.797Z,34.20
2022-08-11T13:17:42.349Z,34.50
2022-08-11T13:20:32.806Z,34.50
2022-08-11T13:28:58.894Z,34.90
2022-08-11T13:34:41.645Z,33.70
2022-08-11T13:38:19.675Z,33.70
2022-08-11T13:40:55.135Z,34.80
2022-08-11T13:43:44.315Z,35.20
2022-08-11T13:46:33.866Z,34.40
2022-08-11T13:49:24.232Z,34.40
2022-08-11T13:52:16.293Z,34.60
2022-08-11T13:55:07.361Z,34.20
2022-08-11T13:58:08.234Z,34.50
2022-08-11T14:01:16.735Z,34.20
2022-08-11T14:04:41.948Z,34.70
2022-08-11T14:07:40.147Z,34.40
2022-08-11T14:10:32.922Z,34.50
2022-08-11T14:13:42.246Z,34.20
2022-08-11T14:16:43.245Z,34.20
2022-08-11T14:19:39.978Z,34.40
2022-08-11T14:22:29.278Z,34.70
2022-08-11T14:25:17.794Z,34.60
2022-08-11T14:31:16.434Z,34.60
2022-08-11T14:34:12.558Z,35.10
2022-08-11T14:37:07.012Z,34.80
2022-08-11T14:40:03.284Z,34.80
2022-08-11T14:43:11.369Z,35.10
2022-08-11T14:46:20.750Z,35.10
2022-08-11T14:49:09.730Z,35.10
2022-08-11T14:52:02.743Z,35.10
2022-08-11T14:55:14.784Z,34.90
2022-08-11T14:58:03.886Z,34.50
2022-08-11T15:00:58.461Z,35.50
2022-08-11T15:04:25.119Z,35.50
2022-08-11T15:06:55.192Z,36.00
2022-08-11T15:12:54.202Z,35.00
2022-08-11T15:16:05.581Z,35.50
2022-08-11T15:22:01.761Z,34.90
2022-08-11T15:27:59.927Z,34.90
2022-08-11T15:31:11.977Z,34.00
2022-08-11T15:34:23.233Z,34.50
2022-08-11T15:37:28.218Z,34.30
2022-08-11T15:40:47.395Z,34.00
2022-08-11T15:44:01.084Z,34.60
2022-08-11T15:46:52.397Z,34.20
2022-08-11T15:50:11.095Z,34.20
2022-08-11T15:52:59.916Z,34.60
2022-08-11T15:55:49.221Z,34.90
2022-08-11T15:59:41.870Z,34.70
2022-08-11T16:02:25.613Z,34.90
2022-08-11T16:05:46.061Z,34.60
2022-08-11T16:08:32.919Z,34.40
2022-08-11T16:11:23.062Z,33.90
2022-08-11T16:14:31.458Z,34.20
2022-08-11T16:17:24.365Z,34.10
2022-08-11T16:20:15.058Z,34.00
2022-08-11T16:23:07.105Z,34.70
2022-08-11T16:27:01.744Z,33.70
2022-08-11T16:29:07.796Z,33.40
2022-08-11T16:32:16.408Z,33.40
2022-08-11T16:35:32.068Z,33.20
2022-08-11T16:38:37.075Z,33.70
2022-08-11T16:41:50.102Z,33.30
2022-08-11T16:44:57.756Z,33.20
2022-08-11T16:48:02.926Z,33.00
2022-08-11T16:54:05.251Z,33.10
2022-08-11T16:56:56.007Z,32.30
2022-08-11T16:59:44.553Z,33.20
2022-08-11T17:02:59.803Z,32.90
2022-08-11T17:06:12.391Z,32.50
2022-08-11T17:09:23.131Z,32.60
2022-08-11T17:12:32.288Z,32.00
2022-08-11T17:15:41.147Z,31.80
2022-08-11T17:18:41.127Z,31.80
2022-08-11T17:22:02.218Z,31.60
2022-08-11T17:24:52.101Z,32.30
2022-08-11T17:27:43.349Z,31.80
2022-08-11T17:30:52.746Z,32.00
2022-08-11T17:36:51.371Z,32.20
2022-08-11T17:39:41.312Z,31.70
2022-08-11T17:42:51.473Z,31.50
2022-08-11T17:46:04.207Z,31.40
2022-08-11T17:52:04.107Z,32.00
2022-08-11T17:55:13.668Z,32.70
2022-08-11T17:58:21.942Z,32.00
2022-08-11T18:01:12.302Z,31.70
2022-08-11T18:04:03.601Z,32.30
2022-08-11T18:06:54.801Z,31.60
2022-08-11T18:13:11.880Z,31.40
2022-08-11T18:19:26.657Z,31.10
2022-08-11T18:22:41.865Z,31.10
2022-08-11T18:25:58.338Z,30.90
2022-08-11T18:29:08.316Z,30.70
2022-08-11T18:32:21.959Z,30.60
2022-08-11T18:35:31.292Z,30.40
2022-08-11T18:38:39.458Z,30.40
2022-08-11T18:41:50.512Z,30.20
2022-08-11T18:44:58.638Z,30.20
2022-08-11T18:48:11.504Z,29.80
2022-08-11T18:51:30.982Z,30.10
2022-08-11T18:54:45.870Z,29.40
2022-08-11T18:57:57.720Z,29.20
2022-08-11T19:01:05.976Z,29.00
2022-08-11T19:04:17.464Z,28.70
2022-08-11T19:07:28.492Z,28.70
2022-08-11T19:10:38.250Z,28.60
2022-08-11T19:13:47.612Z,28.20
2022-08-11T19:16:57.730Z,28.00
2022-08-11T19:20:05.370Z,27.50
2022-08-11T19:23:15.207Z,27.60
2022-08-11T19:26:24.600Z,27.40
2022-08-11T19:30:05.049Z,27.10
2022-08-11T19:33:01.067Z,26.90
2022-08-11T19:36:08.611Z,26.70
2022-08-11T19:39:17.294Z,26.60
2022-08-11T19:42:26.882Z,26.40
2022-08-11T19:45:34.813Z,26.10
2022-08-11T19:48:42.917Z,25.90
2022-08-11T19:51:54.087Z,25.70
2022-08-11T19:55:02.501Z,25.70
2022-08-11T20:01:17.114Z,25.30
2022-08-11T20:07:33.046Z,25.00
2022-08-11T20:10:41.091Z,24.90
2022-08-11T20:13:49.980Z,24.70
2022-08-11T20:20:03.940Z,24.40
2022-08-11T20:23:13.744Z,24.20
2022-08-11T20:26:30.671Z,24.20
2022-08-11T20:29:44.642Z,24.10
2022-08-11T20:32:52.867Z,24.10
2022-08-11T20:35:59.917Z,24.00
2022-08-11T20:39:08.323Z,23.90
2022-08-11T20:42:16.415Z,23.80
2022-08-11T20:45:26.604Z,23.70
2022-08-11T20:48:35.049Z,23.60
2022-08-11T20:54:49.609Z,23.40
2022-08-11T21:01:20.485Z,23.20
2022-08-11T21:07:41.445Z,23.00
2022-08-11T21:10:52.741Z,23.00
2022-08-11T21:17:27.851Z,22.80
2022-08-11T21:20:35.915Z,22.90
2022-08-11T21:23:44.713Z,22.80
2022-08-11T21:26:54.920Z,22.70
2022-08-11T21:33:10.657Z,22.50
2022-08-11T21:36:18.797Z,22.40
2022-08-11T21:39:29.306Z,22.30
2022-08-11T21:42:37.696Z,22.30
2022-08-11T21:45:46.428Z,22.40
2022-08-11T21:48:55.327Z,22.30
2022-08-11T21:55:10.065Z,22.00
2022-08-11T22:01:26.643Z,21.80
2022-08-11T22:07:41.686Z,21.70
2022-08-11T22:10:48.966Z,21.80
2022-08-11T22:14:05.925Z,21.60
2022-08-11T22:17:14.480Z,21.50
2022-08-11T22:26:47.352Z,21.50
2022-08-11T22:33:02.781Z,21.30
2022-08-11T22:36:12.081Z,21.20
2022-08-11T22:39:19.905Z,21.40
2022-08-11T22:48:49.299Z,21.30
2022-08-11T22:51:57.754Z,21.20
2022-08-11T22:55:05.771Z,21.20
2022-08-11T22:58:16.257Z,21.40
2022-08-11T23:01:23.415Z,21.30
2022-08-11T23:04:31.815Z,21.30
2022-08-11T23:07:49.917Z,21.20
2022-08-11T23:10:59.109Z,21.30
2022-08-11T23:17:14.107Z,21.50
2022-08-11T23:20:22.620Z,21.40
2022-08-11T23:23:43.173Z,21.20
2022-08-11T23:26:51.157Z,21.30
2022-08-11T23:30:00.090Z,21.30
2022-08-11T23:33:20.242Z,21.30
2022-08-11T23:43:01.197Z,21.10
2022-08-11T23:49:20.420Z,21.00
